Time;durP1;ratioP1;P1;durP2;ratioP2;P2;SDS_P1;SDS_P2;PMS_P1;PMS_P2;Temp;Humidity;BMP_temperature;BMP_pressure;BME280_temperature;BME280_humidity;BME280_pressure;Samples;Min_cycle;Max_cycle;Signal;HPM_P1;HPM_P2
2022/04/11 00:00:41;;;;;;;5.07;3.87;;;-0.70;99.90;;;;;;5021359;28;20202;-79
2022/04/11 00:03:07;;;;;;;5.37;4.37;;;-0.70;99.90;;;;;;5021244;28;20203;-79
2022/04/11 00:05:32;;;;;;;6.53;4.10;;;0.20;99.90;;;;;;5021522;28;20256;-79
2022/04/11 00:07:58;;;;;;;8.73;4.30;;;0.40;99.90;;;;;;5036664;28;20265;-79
2022/04/11 00:10:23;;;;;;;5.03;4.10;;;-0.10;99.90;;;;;;5019742;28;20203;-79
2022/04/11 00:12:49;;;;;;;5.10;3.57;;;-0.80;99.90;;;;;;5021955;28;20525;-79
2022/04/11 00:15:15;;;;;;;5.23;3.83;;;-0.80;99.90;;;;;;5020330;28;20179;-79
2022/04/11 00:17:40;;;;;;;4.17;3.47;;;-0.70;99.90;;;;;;5027431;28;20238;-78
2022/04/11 00:20:07;;;;;;;6.87;4.13;;;-0.70;99.90;;;;;;5029402;28;20611;-79
2022/04/11 00:22:36;;;;;;;5.37;3.53;;;-0.70;99.90;;;;;;5020377;28;20699;-79
2022/04/11 00:25:04;;;;;;;10.23;4.13;;;-0.70;99.90;;;;;;5019840;28;20453;-79
2022/04/11 00:27:29;;;;;;;6.90;3.63;;;-0.80;99.90;;;;;;5019739;28;20406;-79
2022/04/11 00:29:55;;;;;;;5.30;3.60;;;-0.90;99.90;;;;;;5018181;28;20511;-79
2022/04/11 00:32:21;;;;;;;4.60;3.40;;;-1.00;99.90;;;;;;5018985;28;20176;-79
2022/04/11 00:34:47;;;;;;;3.70;3.30;;;1.40;99.90;;;;;;5019730;28;20171;-79
2022/04/11 00:37:12;;;;;;;4.30;3.70;;;-0.90;99.90;;;;;;5020392;28;20191;-79
2022/04/11 00:39:38;;;;;;;4.07;2.77;;;-1.00;99.90;;;;;;5020594;28;20195;-79
2022/04/11 00:42:15;;;;;;;4.30;3.33;;;-1.00;99.90;;;;;;5020509;28;20247;-79
2022/04/11 00:44:41;;;;;;;3.90;3.50;;;-1.00;99.90;;;;;;5022478;28;20182;-79
2022/04/11 00:47:07;;;;;;;5.67;3.33;;;-1.00;99.90;;;;;;5024477;28;20410;-79
2022/04/11 00:49:33;;;;;;;3.60;3.13;;;-1.10;99.90;;;;;;5022389;28;20434;-79
2022/04/11 00:51:59;;;;;;;5.73;3.50;;;-1.10;99.90;;;;;;5022560;28;20175;-79
2022/04/11 00:54:27;;;;;;;6.50;3.30;;;-1.00;99.90;;;;;;5023700;28;20182;-79
2022/04/11 00:56:54;;;;;;;3.30;2.87;;;-1.00;99.90;;;;;;5023971;28;20178;-79
2022/04/11 00:59:20;;;;;;;3.90;2.83;;;-1.00;99.90;;;;;;5021997;28;20528;-79
2022/04/11 01:01:47;;;;;;;4.80;3.27;;;-1.00;99.90;;;;;;5021605;28;20424;-79
2022/04/11 01:04:23;;;;;;;5.60;3.10;;;-1.00;99.90;;;;;;5022645;28;20461;-79
2022/04/11 01:06:58;;;;;;;4.50;3.30;;;-1.00;99.90;;;;;;5022284;28;20412;-79
2022/04/11 01:09:25;;;;;;;5.10;3.37;;;-0.90;99.90;;;;;;5038652;28;21021;-79
2022/04/11 01:11:52;;;;;;;5.07;3.67;;;-1.00;99.90;;;;;;5021535;28;20476;-78
2022/04/11 01:14:18;;;;;;;6.47;3.53;;;-0.10;99.90;;;;;;5021217;28;20417;-79
2022/04/11 01:16:48;;;;;;;4.70;3.67;;;0.80;99.90;;;;;;5022202;28;20414;-79
2022/04/11 01:19:14;;;;;;;5.33;3.80;;;-0.80;99.90;;;;;;5023442;28;20437;-79
2022/04/11 01:21:40;;;;;;;4.37;3.50;;;;;;;;;;5023003;28;20488;-79
2022/04/11 01:24:06;;;;;;;4.17;3.33;;;-0.80;99.90;;;;;;5020883;28;20309;-79
2022/04/11 01:26:33;;;;;;;4.33;3.17;;;-0.80;99.90;;;;;;5023078;28;20258;-79
2022/04/11 01:28:59;;;;;;;4.43;3.40;;;-0.90;99.90;;;;;;5023144;28;20217;-79
2022/04/11 01:31:25;;;;;;;4.63;3.07;;;-0.90;99.90;;;;;;5021719;28;20483;-79
2022/04/11 01:33:51;;;;;;;4.60;3.50;;;-0.90;99.90;;;;;;5023567;28;20179;-79
2022/04/11 01:36:18;;;;;;;4.67;3.20;;;-0.90;99.90;;;;;;5023631;28;20413;-79
2022/04/11 01:38:44;;;;;;;4.97;3.47;;;-0.80;99.90;;;;;;5022776;28;20186;-79
2022/04/11 01:41:09;;;;;;;4.57;3.57;;;-0.80;99.90;;;;;;5023357;28;20414;-79
2022/04/11 01:43:35;;;;;;;5.57;3.00;;;-0.80;99.90;;;;;;5022633;28;20228;-79
2022/04/11 01:46:00;;;;;;;4.03;3.33;;;-0.80;99.90;;;;;;5022654;28;20168;-79
2022/04/11 01:48:26;;;;;;;4.53;3.33;;;-0.70;99.90;;;;;;5023552;28;20179;-79
2022/04/11 01:50:52;;;;;;;6.03;3.40;;;0.60;99.90;;;;;;5023110;28;20270;-79
2022/04/11 01:53:19;;;;;;;4.30;3.30;;;-0.20;99.90;;;;;;5022815;28;20274;-79
2022/04/11 01:55:45;;;;;;;5.10;3.20;;;-0.70;99.90;;;;;;5020414;28;20179;-79
2022/04/11 01:58:12;;;;;;;4.87;3.47;;;-0.80;99.90;;;;;;5021827;28;20892;-79
2022/04/11 02:00:39;;;;;;;5.07;2.90;;;-0.80;99.90;;;;;;5022625;28;20430;-79
2022/04/11 02:03:06;;;;;;;4.63;3.23;;;-0.80;99.90;;;;;;5020918;28;20425;-79
2022/04/11 02:05:32;;;;;;;5.97;2.93;;;-0.80;99.90;;;;;;5021550;28;20453;-79
2022/04/11 02:07:58;;;;;;;4.40;3.03;;;-0.90;99.90;;;;;;5022479;28;21019;-79
2022/04/11 02:10:24;;;;;;;5.77;2.83;;;-0.90;99.90;;;;;;5022110;28;20437;-79
2022/04/11 02:12:51;;;;;;;3.33;2.77;;;-0.90;99.90;;;;;;5031525;28;20182;-78
2022/04/11 02:15:17;;;;;;;3.43;2.73;;;-0.80;99.90;;;;;;5020241;28;20410;-79
2022/04/11 02:17:44;;;;;;;4.57;2.70;;;-0.90;99.90;;;;;;5021234;28;20410;-79
2022/04/11 02:20:11;;;;;;;4.67;2.73;;;-0.90;99.90;;;;;;5021087;28;20194;-79
2022/04/11 02:22:49;;;;;;;2.50;2.13;;;-1.00;99.90;;;;;;5036728;28;20450;-79
2022/04/11 02:25:15;;;;;;;5.47;2.27;;;-1.00;99.90;;;;;;5021418;28;20452;-79
2022/04/11 02:27:42;;;;;;;5.33;2.50;;;-0.90;99.90;;;;;;5020548;28;20414;-78
2022/04/11 02:30:09;;;;;;;2.47;2.00;;;-1.00;99.90;;;;;;5019949;28;20488;-79
2022/04/11 02:32:35;;;;;;;3.53;2.13;;;-1.00;99.90;;;;;;5019393;28;20413;-79
2022/04/11 02:35:00;;;;;;;3.83;2.47;;;-0.90;99.90;;;;;;5018727;28;20422;-79
2022/04/11 02:37:26;;;;;;;2.40;2.20;;;-1.00;99.90;;;;;;5018448;28;20206;-79
2022/04/11 02:39:52;;;;;;;3.83;2.37;;;-1.00;99.90;;;;;;5033876;28;20199;-78
2022/04/11 02:42:22;;;;;;;2.27;2.07;;;-0.80;99.90;;;;;;5018410;28;20182;-79
2022/04/11 02:44:48;;;;;;;2.40;2.20;;;-1.00;99.90;;;;;;5017477;28;20611;-78
2022/04/11 02:47:13;;;;;;;4.67;2.73;;;-0.90;99.90;;;;;;5016968;28;20402;-78
2022/04/11 02:49:39;;;;;;;4.20;2.70;;;-0.70;99.90;;;;;;5017053;28;20432;-79
2022/04/11 02:52:05;;;;;;;3.13;2.53;;;-0.90;99.90;;;;;;5016366;28;20270;-78
2022/04/11 02:54:31;;;;;;;3.73;2.50;;;-0.90;99.90;;;;;;5019915;28;20633;-79
2022/04/11 02:56:56;;;;;;;3.10;2.40;;;-0.90;99.90;;;;;;5020985;28;20221;-79
2022/04/11 02:59:23;;;;;;;3.07;2.53;;;-0.90;99.90;;;;;;5021208;28;20230;-79
2022/04/11 03:01:48;;;;;;;3.57;2.70;;;-0.60;99.90;;;;;;5019984;28;20202;-79
2022/04/11 03:04:15;;;;;;;4.13;2.83;;;-0.70;99.90;;;;;;5021379;28;20457;-79
2022/04/11 03:06:41;;;;;;;3.97;2.70;;;-0.90;99.90;;;;;;5020979;28;20224;-79
2022/04/11 03:09:08;;;;;;;3.67;2.30;;;-0.80;99.90;;;;;;5018625;28;20481;-79
2022/04/11 03:11:34;;;;;;;7.47;2.60;;;-0.80;99.90;;;;;;5019528;28;20175;-79
2022/04/11 03:14:00;;;;;;;2.87;2.30;;;-0.90;99.90;;;;;;5020190;28;20410;-79
2022/04/11 03:16:26;;;;;;;3.13;2.63;;;0.20;99.90;;;;;;5019913;28;20410;-79
2022/04/11 03:18:51;;;;;;;4.93;2.50;;;-0.90;99.90;;;;;;5019613;28;20502;-79
2022/04/11 03:21:17;;;;;;;3.73;2.63;;;-0.90;99.90;;;;;;5020104;28;20183;-79
2022/04/11 03:23:43;;;;;;;4.63;2.80;;;-0.90;99.90;;;;;;5019720;28;20199;-79
2022/04/11 03:26:08;;;;;;;3.60;2.67;;;-0.80;99.90;;;;;;5020175;28;20179;-79
2022/04/11 03:28:34;;;;;;;4.87;2.97;;;-0.80;99.90;;;;;;5020667;28;20234;-79
2022/04/11 03:31:00;;;;;;;3.17;2.43;;;0.80;99.90;;;;;;5020694;28;20219;-79
2022/04/11 03:33:26;;;;;;;4.23;3.03;;;-0.80;99.90;;;;;;5020976;28;20175;-79
2022/04/11 03:35:52;;;;;;;2.67;2.20;;;-0.60;99.90;;;;;;5022001;28;20406;-79
2022/04/11 03:38:18;;;;;;;4.00;2.70;;;-0.20;99.90;;;;;;5020349;28;20247;-79
2022/04/11 03:40:44;;;;;;;2.57;2.30;;;;;;;;;;5020202;28;20218;-79
2022/04/11 03:43:10;;;;;;;3.40;2.53;;;-1.00;99.90;;;;;;5018340;28;20787;-79
2022/04/11 03:45:35;;;;;;;4.20;2.67;;;-1.00;99.90;;;;;;5019175;28;20183;-79
2022/04/11 03:48:01;;;;;;;4.53;2.50;;;-1.00;99.90;;;;;;5019786;28;20167;-79
2022/04/11 03:50:27;;;;;;;2.80;2.17;;;-1.00;99.90;;;;;;5018557;28;20732;-79
2022/04/11 03:52:53;;;;;;;4.83;2.73;;;0.30;99.90;;;;;;5019631;28;20182;-79
2022/04/11 03:55:18;;;;;;;2.83;2.10;;;-1.00;99.90;;;;;;5018607;28;20207;-79
2022/04/11 03:57:44;;;;;;;4.17;2.20;;;-1.00;99.90;;;;;;5020118;28;20262;-79
2022/04/11 04:00:10;;;;;;;3.80;2.53;;;-1.00;99.90;;;;;;5017841;28;20214;-79
2022/04/11 04:02:36;;;;;;;5.03;3.33;;;-1.10;99.90;;;;;;5022601;28;20209;-78
2022/04/11 04:05:02;;;;;;;2.70;2.20;;;-1.00;99.90;;;;;;5022822;28;20449;-79
2022/04/11 04:07:27;;;;;;;2.77;2.20;;;-1.10;99.90;;;;;;5018399;28;20175;-79
2022/04/11 04:09:53;;;;;;;3.73;2.03;;;-1.00;99.90;;;;;;5016251;28;20206;-79
2022/04/11 04:12:22;;;;;;;2.93;1.63;;;-1.00;99.90;;;;;;5017952;28;20167;-79
2022/04/11 04:14:48;;;;;;;1.97;1.60;;;-1.00;99.90;;;;;;5016527;28;20202;-79
2022/04/11 04:17:14;;;;;;;4.17;2.20;;;-1.00;99.90;;;;;;5016475;28;20512;-79
2022/04/11 04:19:40;;;;;;;2.80;1.87;;;-1.00;99.90;;;;;;5018925;28;20483;-78
2022/04/11 04:22:06;;;;;;;3.43;2.13;;;-1.00;99.90;;;;;;5022146;28;20700;-78
2022/04/11 04:24:33;;;;;;;2.77;2.20;;;-1.00;99.90;;;;;;5020015;28;20202;-78
2022/04/11 04:26:58;;;;;;;4.00;2.57;;;-1.00;99.90;;;;;;5021701;28;20221;-79
2022/04/11 04:29:24;;;;;;;2.57;2.07;;;-0.90;99.90;;;;;;5021788;28;20437;-79
2022/04/11 04:31:50;;;;;;;3.83;2.33;;;-0.90;99.90;;;;;;5022774;28;20179;-79
2022/04/11 04:34:16;;;;;;;2.90;2.03;;;-0.90;99.90;;;;;;5024081;28;20541;-79
2022/04/11 04:36:42;;;;;;;3.23;2.10;;;-0.90;99.90;;;;;;5039488;28;20425;-79
2022/04/11 04:39:07;;;;;;;3.43;2.50;;;-1.00;99.90;;;;;;5024319;28;20198;-79
2022/04/11 04:41:33;;;;;;;3.17;1.93;;;-1.00;99.90;;;;;;5024695;28;20531;-79
2022/04/11 04:43:59;;;;;;;4.73;2.30;;;-1.00;99.90;;;;;;5023227;28;20199;-79
2022/04/11 04:46:25;;;;;;;2.40;1.87;;;-1.00;99.90;;;;;;5023264;28;20557;-79
2022/04/11 04:48:51;;;;;;;4.40;2.43;;;-1.00;99.90;;;;;;5024777;28;20420;-80
2022/04/11 04:51:19;;;;;;;4.63;2.30;;;-1.00;99.90;;;;;;5025327;28;20182;-80
2022/04/11 04:53:45;;;;;;;5.17;2.40;;;-1.10;99.90;;;;;;5022735;28;20202;-79
2022/04/11 04:56:11;;;;;;;4.17;2.00;;;-1.10;99.90;;;;;;5024532;28;20408;-79
2022/04/11 04:58:36;;;;;;;3.77;2.20;;;-1.10;99.90;;;;;;5024220;28;20245;-79
2022/04/11 05:01:02;;;;;;;3.83;2.37;;;-1.20;99.90;;;;;;5023194;28;20584;-80
2022/04/11 05:03:27;;;;;;;4.33;2.60;;;-1.20;99.90;;;;;;5023715;28;20693;-79
2022/04/11 05:05:55;;;;;;;4.80;2.53;;;-1.10;99.90;;;;;;5022901;28;20183;-80
2022/04/11 05:08:21;;;;;;;3.93;2.50;;;-1.10;99.90;;;;;;5038937;28;20200;-79
2022/04/11 05:10:47;;;;;;;3.20;2.43;;;-1.10;99.90;;;;;;5022876;28;20442;-79
2022/04/11 05:13:13;;;;;;;11.80;2.87;;;0.10;99.90;;;;;;5022958;28;20173;-79
2022/04/11 05:15:42;;;;;;;5.83;3.00;;;;;;;;;;5022937;28;20179;-79
2022/04/11 05:18:08;;;;;;;3.50;2.73;;;-0.90;99.90;;;;;;5022442;28;20635;-79
2022/04/11 05:20:34;;;;;;;3.83;3.00;;;-0.80;99.90;;;;;;5022564;28;20521;-79
2022/04/11 05:23:00;;;;;;;5.50;2.33;;;0.80;99.90;;;;;;5023304;28;20438;-79
2022/04/11 05:25:25;;;;;;;3.63;2.57;;;-0.60;99.90;;;;;;5023112;28;20238;-79
2022/04/11 05:27:52;;;;;;;5.17;2.57;;;-0.50;99.90;;;;;;5022408;28;20283;-79
2022/04/11 05:30:18;;;;;;;3.77;3.07;;;-0.20;99.90;;;;;;5019918;28;20228;-79
2022/04/11 05:32:44;;;;;;;4.73;2.87;;;;;;;;;;5020300;28;20420;-79
2022/04/11 05:35:10;;;;;;;6.43;3.23;;;-0.40;99.90;;;;;;5022160;28;20552;-79
2022/04/11 05:37:36;;;;;;;3.97;2.97;;;-0.10;99.90;;;;;;5021089;28;20838;-80
2022/04/11 05:40:03;;;;;;;9.37;4.00;;;-0.30;99.90;;;;;;5021322;28;20230;-79
2022/04/11 05:42:29;;;;;;;4.97;3.60;;;-0.30;99.90;;;;;;5020084;28;20191;-79
2022/04/11 05:44:55;;;;;;;6.13;3.40;;;0.20;99.90;;;;;;5019653;28;20449;-80
2022/04/11 05:47:21;;;;;;;6.10;4.27;;;0.10;99.90;;;;;;5019508;28;20179;-79
2022/04/11 05:49:46;;;;;;;7.87;5.80;;;0.10;99.90;;;;;;5019535;28;20194;-79
2022/04/11 05:52:16;;;;;;;10.50;5.77;;;0.60;99.90;;;;;;5017147;28;20228;-79
2022/04/11 05:54:42;;;;;;;6.80;4.07;;;0.20;99.90;;;;;;5016130;28;20577;-79
2022/04/11 05:57:07;;;;;;;6.93;4.20;;;0.40;99.90;;;;;;5017294;28;20424;-79
2022/04/11 05:59:33;;;;;;;3.13;2.63;;;0.40;99.90;;;;;;5026036;28;20194;-79
2022/04/11 06:01:59;;;;;;;5.20;3.10;;;0.50;99.90;;;;;;5024678;28;20171;-79
2022/04/11 06:04:24;;;;;;;5.70;3.47;;;0.50;99.90;;;;;;5021800;28;20684;-79
2022/04/11 06:06:50;;;;;;;3.40;2.97;;;0.50;99.90;;;;;;5021000;28;20174;-79
2022/04/11 06:09:15;;;;;;;4.57;3.10;;;0.50;99.90;;;;;;5022165;28;20269;-79
2022/04/11 06:11:41;;;;;;;9.50;3.93;;;0.50;99.90;;;;;;5022524;28;20570;-79
2022/04/11 06:14:07;;;;;;;12.13;5.07;;;0.60;99.90;;;;;;5022290;28;20171;-79
2022/04/11 06:16:32;;;;;;;10.30;4.13;;;0.60;99.90;;;;;;5038412;28;20210;-80
2022/04/11 06:18:58;;;;;;;8.13;3.93;;;0.50;99.90;;;;;;5023019;28;20207;-80
2022/04/11 06:21:24;;;;;;;11.67;4.97;;;0.70;99.90;;;;;;5021719;28;20189;-80
2022/04/11 06:23:49;;;;;;;15.47;4.67;;;0.80;99.90;;;;;;5022627;28;20234;-80
2022/04/11 06:26:15;;;;;;;10.63;4.07;;;0.70;99.90;;;;;;5021740;28;20215;-80
2022/04/11 06:28:43;;;;;;;11.37;3.93;;;0.90;99.90;;;;;;5021841;28;20190;-80
2022/04/11 06:31:10;;;;;;;12.50;4.07;;;0.90;99.90;;;;;;5022999;28;20257;-80
2022/04/11 06:33:37;;;;;;;3.10;2.80;;;1.00;99.90;;;;;;5021624;28;20414;-81
2022/04/11 06:36:03;;;;;;;4.73;2.00;;;1.00;99.90;;;;;;5022934;28;20766;-80
2022/04/11 06:38:29;;;;;;;2.57;2.37;;;0.90;99.90;;;;;;5023466;28;20430;-83
2022/04/11 06:40:56;;;;;;;4.10;2.60;;;0.90;99.90;;;;;;5022405;28;20444;-83
2022/04/11 06:43:22;;;;;;;7.10;2.83;;;1.80;99.90;;;;;;5021558;28;20187;-83
2022/04/11 06:45:48;;;;;;;4.47;2.70;;;2.10;99.90;;;;;;5021730;28;20420;-83
2022/04/11 06:48:13;;;;;;;4.27;2.50;;;1.30;99.90;;;;;;5022232;28;20496;-83
2022/04/11 06:50:41;;;;;;;4.30;2.47;;;1.50;99.90;;;;;;5022643;28;20457;-84
2022/04/11 06:53:06;;;;;;;3.10;2.63;;;1.60;99.90;;;;;;5021872;28;20449;-83
2022/04/11 06:55:33;;;;;;;3.90;2.47;;;1.80;99.90;;;;;;5021789;28;20183;-84
2022/04/11 06:57:59;;;;;;;8.93;2.90;;;2.00;99.90;;;;;;5023425;28;20655;-83
2022/04/11 07:00:25;;;;;;;5.80;2.17;;;2.10;99.90;;;;;;5038296;28;20870;-83
2022/04/11 07:02:51;;;;;;;3.80;2.10;;;2.30;99.90;;;;;;5020447;28;20520;-83
2022/04/11 07:05:16;;;;;;;2.50;1.90;;;2.50;99.90;;;;;;5020592;28;20213;-83
2022/04/11 07:07:42;;;;;;;3.17;2.23;;;2.70;99.90;;;;;;5021845;28;20174;-83
2022/04/11 07:10:11;;;;;;;4.07;2.43;;;2.80;99.90;;;;;;5019766;28;20637;-83
2022/04/11 07:12:40;;;;;;;4.07;2.43;;;3.00;99.90;;;;;;5022053;28;20171;-83
2022/04/11 07:15:06;;;;;;;3.53;2.40;;;3.10;99.90;;;;;;5021075;28;20414;-83
2022/04/11 07:17:32;;;;;;;3.37;2.27;;;3.60;99.90;;;;;;5022368;28;20406;-83
2022/04/11 07:19:58;;;;;;;3.33;2.20;;;4.20;99.90;;;;;;5022030;28;20484;-84
2022/04/11 07:22:24;;;;;;;3.17;2.20;;;4.60;99.90;;;;;;5021396;28;20178;-83
2022/04/11 07:24:49;;;;;;;2.30;2.10;;;5.10;99.90;;;;;;5021459;28;20214;-83
2022/04/11 07:27:15;;;;;;;2.10;1.90;;;5.60;99.90;;;;;;5020944;28;20182;-83
2022/04/11 07:29:41;;;;;;;1.60;1.47;;;6.30;99.90;;;;;;5022193;28;20278;-83
2022/04/11 07:32:07;;;;;;;3.77;2.30;;;6.90;99.90;;;;;;5021427;28;20191;-83
2022/04/11 07:34:33;;;;;;;4.93;1.90;;;7.30;99.90;;;;;;5021589;28;20182;-83
2022/04/11 07:36:59;;;;;;;4.63;2.03;;;7.70;99.90;;;;;;5022400;28;20193;-84
2022/04/11 07:39:24;;;;;;;2.23;1.90;;;8.00;99.90;;;;;;5021458;28;20441;-84
2022/04/11 07:41:53;;;;;;;2.03;1.30;;;8.50;99.90;;;;;;5022435;28;20179;-84
2022/04/11 07:44:19;;;;;;;2.07;1.60;;;8.80;99.90;;;;;;5023035;28;20630;-84
2022/04/11 07:46:45;;;;;;;3.73;1.60;;;9.30;99.90;;;;;;5022380;28;20481;-83
2022/04/11 07:49:10;;;;;;;2.83;1.50;;;9.50;96.00;;;;;;5022764;28;20226;-84
2022/04/11 07:51:36;;;;;;;2.33;1.23;;;10.00;95.50;;;;;;5023255;28;20606;-84
2022/04/11 07:54:02;;;;;;;2.43;1.40;;;10.80;98.10;;;;;;5024158;28;20175;-84
2022/04/11 07:56:29;;;;;;;1.60;1.40;;;11.10;97.00;;;;;;5033268;28;20155;-83
2022/04/11 07:58:55;;;;;;;1.53;1.20;;;11.50;94.10;;;;;;5032714;28;20171;-83
2022/04/11 08:01:21;;;;;;;2.43;1.60;;;11.50;93.20;;;;;;5029536;28;20178;-83
2022/04/11 08:03:47;;;;;;;2.10;1.53;;;12.20;94.70;;;;;;5024909;28;20201;-84
2022/04/11 08:06:13;;;;;;;2.67;1.40;;;12.70;92.70;;;;;;5022880;28;20181;-84
2022/04/11 08:08:44;;;;;;;1.73;1.17;;;12.70;91.60;;;;;;5022965;28;20175;-84
2022/04/11 08:11:11;;;;;;;1.57;1.20;;;12.70;87.10;;;;;;5022468;28;20174;-84
2022/04/11 08:13:38;;;;;;;3.80;1.20;;;12.80;86.80;;;;;;5024121;28;20201;-84
2022/04/11 08:16:05;;;;;;;1.30;1.00;;;13.20;83.30;;;;;;5023907;28;20175;-84
2022/04/11 08:18:30;;;;;;;1.30;0.83;;;13.40;79.10;;;;;;5021749;28;20196;-83
2022/04/11 08:20:56;;;;;;;3.07;1.30;;;13.50;79.30;;;;;;5022608;28;20195;-83
2022/04/11 08:23:22;;;;;;;2.40;1.00;;;13.80;76.20;;;;;;5022380;28;20313;-83
2022/04/11 08:25:49;;;;;;;1.07;0.83;;;14.40;75.40;;;;;;5021930;28;20700;-83
2022/04/11 08:28:15;;;;;;;1.00;0.73;;;14.30;67.80;;;;;;5024279;28;20171;-83
2022/04/11 08:30:41;;;;;;;2.20;0.97;;;14.50;64.30;;;;;;5022365;28;20210;-83
2022/04/11 08:33:07;;;;;;;1.53;0.90;;;14.10;65.10;;;;;;5023054;28;20167;-83
2022/04/11 08:35:32;;;;;;;1.37;0.80;;;14.20;66.90;;;;;;5038687;28;20190;-82
2022/04/11 08:37:58;;;;;;;2.07;1.00;;;14.30;62.30;;;;;;5026482;28;20194;-82
2022/04/11 08:40:24;;;;;;;1.17;0.70;;;14.00;65.30;;;;;;5019854;28;20207;-82
2022/04/11 08:42:50;;;;;;;1.50;1.00;;;14.50;63.10;;;;;;5019821;28;20178;-82
2022/04/11 08:45:19;;;;;;;2.57;1.00;;;14.90;63.60;;;;;;5015285;28;20207;-83
2022/04/11 08:47:45;;;;;;;79.93;10.23;;;14.80;59.80;;;;;;5015763;28;20614;-82
2022/04/11 08:50:12;;;;;;;2.30;1.20;;;14.00;62.10;;;;;;5014656;28;20210;-82
2022/04/11 08:52:40;;;;;;;2.67;1.00;;;14.10;62.50;;;;;;5013550;28;20266;-83
2022/04/11 08:55:06;;;;;;;1.57;0.97;;;14.00;64.60;;;;;;5014209;28;20549;-84
2022/04/11 08:57:32;;;;;;;1.77;1.03;;;14.30;63.10;;;;;;5013762;28;20190;-82
2022/04/11 09:00:10;;;;;;;1.83;1.20;;;14.30;62.40;;;;;;5021682;28;20203;-84
2022/04/11 09:02:37;;;;;;;0.80;0.80;;;14.60;59.10;;;;;;5022662;28;20172;-83
2022/04/11 09:05:03;;;;;;;2.33;0.97;;;14.70;64.80;;;;;;5023491;28;20278;-84
2022/04/11 09:07:45;;;;;;;1.00;0.80;;;14.50;65.10;;;;;;5027395;28;20179;-84
2022/04/11 09:10:12;;;;;;;1.40;0.93;;;14.40;67.10;;;;;;5027996;28;20203;-84
2022/04/11 09:12:47;;;;;;;1.27;1.00;;;14.60;62.60;;;;;;5026722;28;20180;-84
2022/04/11 09:15:13;;;;;;;1.77;1.10;;;13.90;67.40;;;;;;5027384;28;20198;-82
2022/04/11 09:17:43;;;;;;;1.60;1.00;;;14.20;75.20;;;;;;5048729;28;20164;-80
2022/04/11 09:20:11;;;;;;;2.73;1.17;;;14.60;66.20;;;;;;5030919;28;20209;-84
2022/04/11 09:22:37;;;;;;;2.80;1.20;;;15.10;66.70;;;;;;5024660;28;20196;-82
2022/04/11 09:25:10;;;;;;;1.30;1.10;;;15.30;67.90;;;;;;5040047;28;20209;-82
2022/04/11 09:27:36;;;;;;;1.87;1.13;;;15.20;67.90;;;;;;5024812;28;20184;-82
2022/04/11 09:30:21;;;;;;;1.50;1.07;;;14.90;67.40;;;;;;5023924;28;20288;-82
2022/04/11 09:32:59;;;;;;;1.77;1.10;;;14.30;70.90;;;;;;5023367;28;20176;-83
2022/04/11 09:35:30;;;;;;;2.43;1.00;;;13.80;68.70;;;;;;5024308;28;20189;-81
2022/04/11 09:38:08;;;;;;;2.53;1.20;;;14.00;77.20;;;;;;5023674;28;20201;-81
2022/04/11 09:40:54;;;;;;;3.07;1.20;;;14.40;66.90;;;;;;5024916;28;20205;-81
2022/04/11 09:43:31;;;;;;;1.63;1.00;;;14.80;72.40;;;;;;5024996;28;20223;-84
2022/04/11 09:46:01;;;;;;;1.83;1.17;;;15.00;73.30;;;;;;5024721;28;20175;-81
2022/04/11 09:48:30;;;;;;;1.87;1.13;;;15.10;68.00;;;;;;5024256;28;20178;-82
2022/04/11 09:51:00;;;;;;;1.47;1.03;;;15.20;62.70;;;;;;5025070;28;20195;-84
2022/04/11 09:53:34;;;;;;;1.13;1.03;;;15.10;65.80;;;;;;5032767;28;20174;-80
2022/04/11 09:56:08;;;;;;;1.07;0.97;;;15.00;66.50;;;;;;5028912;28;20175;-83
2022/04/11 09:58:38;;;;;;;1.40;1.20;;;15.10;67.10;;;;;;5022192;28;20178;-83
2022/04/11 10:01:05;;;;;;;1.47;0.97;;;15.40;63.40;;;;;;5021518;28;20203;-81
2022/04/11 10:03:32;;;;;;;1.80;1.20;;;15.40;65.50;;;;;;5020452;28;20182;-83
2022/04/11 10:05:58;;;;;;;1.40;1.10;;;15.50;64.50;;;;;;5022442;28;20186;-83
2022/04/11 10:08:25;;;;;;;1.67;1.07;;;15.60;61.50;;;;;;5022746;28;20223;-84
2022/04/11 10:10:52;;;;;;;1.40;1.00;;;15.60;61.10;;;;;;5021944;28;20225;-83
2022/04/11 10:13:18;;;;;;;1.27;1.17;;;15.50;62.30;;;;;;5020605;28;20234;-81
2022/04/11 10:15:46;;;;;;;1.10;0.80;;;15.50;62.10;;;;;;5020726;28;20186;-83
2022/04/11 10:18:19;;;;;;;1.27;1.10;;;15.60;61.10;;;;;;5022289;28;20179;-84
2022/04/11 10:20:52;;;;;;;1.33;1.13;;;15.80;63.10;;;;;;5005752;28;20203;-82
2022/04/11 10:23:45;;;;;;;1.00;0.90;;;15.90;60.00;;;;;;5019896;28;20171;-83
2022/04/11 10:26:18;;;;;;;3.03;1.20;;;16.10;58.50;;;;;;5022976;28;20168;-81
2022/04/11 10:28:46;;;;;;;1.93;1.10;;;15.80;59.20;;;;;;5021836;28;20171;-81
2022/04/11 10:31:14;;;;;;;1.07;0.80;;;15.40;61.00;;;;;;5022115;28;20641;-81
2022/04/11 10:33:50;;;;;;;0.70;0.70;;;15.60;60.60;;;;;;5021776;28;20208;-81
2022/04/11 10:36:36;;;;;;;1.80;1.27;;;16.00;63.40;;;;;;5021548;28;20225;-82
2022/04/11 10:39:14;;;;;;;2.00;1.00;;;16.40;56.70;;;;;;5018035;28;20286;-81
2022/04/11 10:41:58;;;;;;;1.17;0.90;;;16.20;55.40;;;;;;5020189;28;20170;-81
2022/04/11 10:44:33;;;;;;;1.43;0.73;;;15.90;56.90;;;;;;5020365;28;20188;-81
2022/04/11 10:47:08;;;;;;;0.90;0.80;;;16.00;54.20;;;;;;5021395;28;20174;-85
2022/04/11 10:49:53;;;;;;;2.30;1.00;;;16.00;57.70;;;;;;5020115;28;20282;-84
2022/04/11 10:52:33;;;;;;;15.53;2.40;;;16.00;54.40;;;;;;5020865;28;20189;-85
2022/04/11 10:55:19;;;;;;;20.23;2.47;;;15.90;57.80;;;;;;5021612;28;20199;-82
2022/04/11 10:57:46;;;;;;;1.97;0.80;;;16.10;54.60;;;;;;5022566;28;20155;-83
2022/04/11 11:00:23;;;;;;;1.23;0.80;;;16.40;54.20;;;;;;5022799;28;20198;-84
2022/04/11 11:05:45;;;;;;;24.13;3.40;;;16.40;55.60;;;;;;5022985;28;20561;-84
2022/04/11 11:08:14;;;;;;;1.20;0.70;;;16.70;55.70;;;;;;5023181;28;20182;-83
2022/04/11 11:11:22;;;;;;;1.33;0.80;;;17.00;56.60;;;;;;5021947;28;20252;-83
2022/04/11 11:13:49;;;;;;;0.93;0.83;;;17.20;54.90;;;;;;5021531;28;20685;-82
2022/04/11 11:16:14;;;;;;;1.57;0.90;;;17.50;54.90;;;;;;5021473;28;20175;-83
2022/04/11 11:18:50;;;;;;;1.63;1.07;;;17.80;53.50;;;;;;5020807;28;20179;-82
2022/04/11 11:21:28;;;;;;;1.67;0.80;;;17.90;55.70;;;;;;5021472;28;20236;-82
2022/04/11 11:24:03;;;;;;;1.20;0.90;;;17.80;53.30;;;;;;5022687;28;20185;-83
2022/04/11 11:26:52;;;;;;;0.97;0.80;;;17.60;49.60;;;;;;5022912;28;20178;-83
2022/04/11 11:29:24;;;;;;;1.20;1.10;;;17.10;52.40;;;;;;5021024;28;20293;-83
2022/04/11 11:31:52;;;;;;;4.10;1.10;;;17.20;51.70;;;;;;5022512;28;20233;-83
2022/04/11 11:34:21;;;;;;;1.63;1.10;;;17.50;50.50;;;;;;5022930;28;20201;-84
2022/04/11 11:36:47;;;;;;;1.07;0.80;;;18.00;53.10;;;;;;5025165;28;20209;-84
2022/04/11 11:39:17;;;;;;;1.40;0.93;;;18.40;50.00;;;;;;5022105;28;20201;-83
2022/04/11 11:41:47;;;;;;;1.67;1.00;;;18.40;48.50;;;;;;5023094;28;20176;-84
2022/04/11 11:44:13;;;;;;;3.17;1.80;;;18.20;50.10;;;;;;5023315;28;20185;-83
2022/04/11 11:46:55;;;;;;;3.73;1.00;;;18.00;50.20;;;;;;5024527;28;20187;-84
2022/04/11 11:49:23;;;;;;;1.20;1.10;;;18.20;48.80;;;;;;5027274;28;20199;-80
2022/04/11 11:51:49;;;;;;;1.90;1.00;;;18.20;47.40;;;;;;5032927;28;20184;-80
2022/04/11 11:54:35;;;;;;;4.60;0.90;;;18.60;48.70;;;;;;5025740;28;20206;-80
2022/04/11 11:57:02;;;;;;;2.00;1.03;;;19.50;49.60;;;;;;5027839;28;20213;-80
2022/04/11 11:59:28;;;;;;;1.43;0.93;;;19.60;50.20;;;;;;5026205;28;20196;-81
2022/04/11 12:04:39;;;;;;;1.20;0.90;;;19.90;48.10;;;;;;5023899;28;20186;-81
2022/04/11 12:07:06;;;;;;;2.83;0.93;;;19.50;47.80;;;;;;5019267;28;20186;-80
2022/04/11 12:09:41;;;;;;;1.60;0.83;;;19.50;47.80;;;;;;5020460;28;20192;-80
2022/04/11 12:12:11;;;;;;;2.93;1.10;;;19.40;48.20;;;;;;5018630;28;20187;-80
2022/04/11 12:15:00;;;;;;;2.53;0.67;;;20.00;51.30;;;;;;5018495;28;20290;-80
2022/04/11 12:17:30;;;;;;;0.83;0.80;;;20.50;46.50;;;;;;5020588;28;20270;-82
2022/04/11 12:20:13;;;;;;;2.13;1.10;;;20.20;48.40;;;;;;5021854;28;20311;-82
2022/04/11 12:22:40;;;;;;;1.07;0.93;;;20.30;51.50;;;;;;5023503;28;20230;-82
2022/04/11 12:25:27;;;;;;;1.53;0.93;;;20.90;49.50;;;;;;5021527;28;20175;-82
2022/04/11 12:28:18;;;;;;;1.33;1.23;;;20.90;48.50;;;;;;5024183;28;20214;-82
2022/04/11 12:31:18;;;;;;;3.43;0.90;;;21.10;48.50;;;;;;5025333;28;20278;-82
2022/04/11 12:33:49;;;;;;;2.17;1.00;;;21.30;47.50;;;;;;5016062;28;20215;-83
2022/04/11 12:36:19;;;;;;;1.23;1.00;;;21.20;44.80;;;;;;5024339;28;20186;-83
2022/04/11 12:38:50;;;;;;;2.30;0.70;;;20.40;44.90;;;;;;5023953;28;20191;-83
2022/04/11 12:41:36;;;;;;;1.93;0.87;;;20.40;45.70;;;;;;5027645;28;20175;-83
2022/04/11 12:44:07;;;;;;;1.20;0.80;;;20.80;49.80;;;;;;5028645;28;20192;-83
2022/04/11 12:46:40;;;;;;;1.17;0.83;;;21.00;46.10;;;;;;5028845;28;20183;-84
2022/04/11 12:49:07;;;;;;;1.03;0.90;;;21.60;47.90;;;;;;5012019;28;20230;-84
2022/04/11 12:51:33;;;;;;;4.00;1.00;;;22.10;45.90;;;;;;5031181;28;20205;-83
2022/04/11 12:54:11;;;;;;;1.00;0.90;;;21.80;43.10;;;;;;5035327;28;20210;-84
2022/04/11 12:56:49;;;;;;;1.23;0.93;;;21.30;44.50;;;;;;5026736;28;20181;-83
2022/04/11 12:59:32;;;;;;;0.87;0.83;;;21.00;46.40;;;;;;5025540;28;20197;-83
2022/04/11 13:02:14;;;;;;;1.10;0.90;;;21.00;44.80;;;;;;5027044;28;20175;-84